Time;durP1;ratioP1;P1;durP2;ratioP2;P2;SDS_P1;SDS_P2;PMS_P1;PMS_P2;Temp;Humidity;BMP_temperature;BMP_pressure;BME280_temperature;BME280_humidity;BME280_pressure;Samples;Min_cycle;Max_cycle;Signal;HPM_P1;HPM_P2
2023/07/03 00:02:22;;;;;;;13.07;3.97;;;;;;;15.09;100.00;100689.81;5005866;28;20052;-79
2023/07/03 00:04:49;;;;;;;13.93;4.25;;;;;;;15.09;100.00;100697.78;4987969;28;20056;-82
2023/07/03 00:07:17;;;;;;;11.00;4.38;;;;;;;15.08;100.00;100688.03;5039958;28;20531;-80
2023/07/03 00:09:45;;;;;;;10.25;4.00;;;;;;;15.08;100.00;100682.72;5007447;28;20048;-79
2023/07/03 00:12:12;;;;;;;12.43;4.28;;;;;;;15.08;100.00;100685.38;5049821;28;20045;-81
2023/07/03 00:14:40;;;;;;;10.73;3.75;;;;;;;15.08;100.00;100687.19;5017272;28;20053;-79
2023/07/03 00:17:07;;;;;;;14.85;4.05;;;;;;;15.06;100.00;100688.97;5019288;28;20046;-80
2023/07/03 00:19:35;;;;;;;11.50;3.92;;;;;;;15.03;100.00;100689.94;4989756;28;21641;-79
2023/07/03 00:22:02;;;;;;;13.35;3.83;;;;;;;15.04;100.00;100682.81;5037802;28;20052;-79
2023/07/03 00:24:32;;;;;;;12.32;3.70;;;;;;;15.02;100.00;100683.72;5018948;28;20052;-79
2023/07/03 00:27:00;;;;;;;10.93;3.70;;;;;;;15.03;100.00;100663.38;5032060;28;20403;-79
2023/07/03 00:29:32;;;;;;;14.07;4.30;;;;;;;15.01;100.00;100667.84;5043144;28;20056;-79
2023/07/03 00:32:00;;;;;;;14.75;3.72;;;;;;;14.98;100.00;100659.94;5025994;28;20064;-81
2023/07/03 00:34:28;;;;;;;13.32;3.45;;;;;;;14.98;100.00;100665.25;5011687;28;20052;-80
2023/07/03 00:36:55;;;;;;;11.10;4.47;;;;;;;14.96;100.00;100672.34;5005389;28;20045;-80
2023/07/03 00:39:23;;;;;;;8.25;3.70;;;;;;;14.97;100.00;100668.78;5019104;28;20061;-80
2023/07/03 00:41:50;;;;;;;10.20;3.20;;;;;;;14.97;100.00;100668.78;5051631;28;20041;-80
2023/07/03 00:44:19;;;;;;;12.43;4.10;;;;;;;14.98;100.00;100665.25;5026671;28;20057;-79
2023/07/03 00:46:51;;;;;;;9.68;4.32;;;;;;;14.99;100.00;100674.97;5014075;28;20045;-80
2023/07/03 00:49:20;;;;;;;10.68;3.95;;;;;;;14.99;100.00;100667.00;5024419;28;20060;-79
2023/07/03 00:51:54;;;;;;;12.90;3.90;;;;;;;14.97;100.00;100672.34;5003308;28;20053;-79
2023/07/03 00:54:22;;;;;;;11.93;4.28;;;;;;;14.96;100.00;100662.59;5044917;28;20049;-80
2023/07/03 00:56:49;;;;;;;11.90;4.15;;;;;;;14.97;100.00;100659.06;5037280;28;20049;-81
2023/07/03 00:59:17;;;;;;;9.90;4.03;;;;;;;14.98;100.00;100665.25;5024908;28;20060;-79
2023/07/03 01:01:55;;;;;;;11.48;3.70;;;;;;;14.98;100.00;100665.25;5009670;28;20056;-80
2023/07/03 01:04:41;;;;;;;8.85;3.60;;;;;;;14.98;100.00;100666.09;5015868;28;20059;-80
2023/07/03 01:07:13;;;;;;;10.38;3.53;;;;;;;14.99;100.00;100659.91;5003554;28;20060;-82
2023/07/03 01:09:45;;;;;;;11.77;3.80;;;;;;;15.00;100.00;100655.47;5045022;28;20045;-80
2023/07/03 01:12:14;;;;;;;11.77;4.75;;;;;;;15.00;100.00;100659.00;5036214;28;20049;-79
2023/07/03 01:14:44;;;;;;;15.07;3.63;;;;;;;14.99;100.00;100656.41;5051068;28;20071;-80
2023/07/03 01:17:14;;;;;;;14.05;4.47;;;;;;;15.00;100.00;100648.38;5033386;28;20053;-80
2023/07/03 01:19:45;;;;;;;10.73;3.97;;;;;;;14.99;100.00;100649.31;5015369;28;20796;-81
2023/07/03 01:22:22;;;;;;;9.07;3.33;;;;;;;14.99;100.00;100651.09;4988038;28;20056;-80
2023/07/03 01:24:55;;;;;;;11.73;3.88;;;;;;;14.98;100.00;100644.88;5039168;28;20056;-81
2023/07/03 01:27:27;;;;;;;8.65;3.60;;;;;;;14.95;100.00;100646.72;5035400;28;20048;-80
2023/07/03 01:29:56;;;;;;;11.07;3.53;;;;;;;14.94;100.00;100640.53;5052215;28;20045;-80
2023/07/03 01:32:28;;;;;;;9.93;3.47;;;;;;;14.94;100.00;100629.06;5028501;28;20384;-79
2023/07/03 01:34:57;;;;;;;10.95;3.83;;;;;;;14.92;100.00;100634.38;5006271;28;20049;-80
2023/07/03 01:37:27;;;;;;;17.95;4.22;;;;;;;14.92;100.00;100642.34;5023112;28;20052;-81
2023/07/03 01:39:56;;;;;;;9.88;4.38;;;;;;;14.93;100.00;100640.56;5027614;28;20064;-79
2023/07/03 01:42:26;;;;;;;12.18;3.30;;;;;;;14.92;100.00;100634.38;5030961;28;20062;-79
2023/07/03 01:44:54;;;;;;;11.82;3.58;;;;;;;14.92;100.00;100636.19;5025906;28;20045;-81
2023/07/03 01:47:21;;;;;;;18.20;4.57;;;;;;;14.92;100.00;100638.81;5046492;28;20048;-79
2023/07/03 01:49:49;;;;;;;16.70;4.00;;;;;;;14.90;100.00;100635.34;5018084;28;21175;-79
2023/07/03 01:52:20;;;;;;;11.75;3.50;;;;;;;14.90;100.00;100641.50;5031793;28;20076;-80
2023/07/03 01:55:12;;;;;;;13.10;4.13;;;;;;;14.90;100.00;100641.50;5005737;28;20049;-80
2023/07/03 01:58:03;;;;;;;13.93;3.92;;;;;;;14.89;100.00;100637.09;5028726;28;20045;-80
2023/07/03 02:00:46;;;;;;;9.27;3.75;;;;;;;14.89;100.00;100638.88;5015845;28;20523;-79
2023/07/03 02:03:42;;;;;;;10.15;3.58;;;;;;;14.89;100.00;100636.22;5030847;28;20510;-79
2023/07/03 02:06:25;;;;;;;9.05;3.60;;;;;;;14.88;100.00;100637.13;5033450;28;20050;-80
2023/07/03 02:08:53;;;;;;;12.15;3.00;;;;;;;14.87;100.00;100636.25;5006551;28;20041;-80
2023/07/03 02:11:23;;;;;;;12.95;3.45;;;;;;;14.87;100.00;100635.38;4978889;28;20060;-79
2023/07/03 02:13:55;;;;;;;12.23;3.50;;;;;;;14.88;100.00;100639.78;5019528;28;20054;-79
2023/07/03 02:16:29;;;;;;;11.45;3.58;;;;;;;14.87;100.00;100640.69;5033832;28;20049;-80
2023/07/03 02:18:58;;;;;;;9.88;3.22;;;;;;;14.84;100.00;100641.63;5051617;28;20049;-81
2023/07/03 02:21:27;;;;;;;8.20;2.70;;;;;;;14.82;100.00;100643.44;5017536;28;20049;-80
2023/07/03 02:23:54;;;;;;;12.05;3.60;;;;;;;14.79;100.00;100644.34;5050065;28;20033;-80
2023/07/03 02:26:22;;;;;;;14.77;3.85;;;;;;;14.75;100.00;100642.66;4999197;28;20071;-80
2023/07/03 02:28:50;;;;;;;10.70;3.17;;;;;;;14.71;100.00;100635.66;5024359;28;20045;-80
2023/07/03 02:31:17;;;;;;;9.18;3.45;;;;;;;14.67;100.00;100639.25;5009593;28;20054;-78
2023/07/03 02:33:45;;;;;;;14.32;3.70;;;;;;;14.62;100.00;100626.06;5027316;28;20051;-79
2023/07/03 02:36:12;;;;;;;8.98;3.03;;;;;;;14.60;100.00;100637.59;5025660;28;20056;-77
2023/07/03 02:38:42;;;;;;;12.43;3.00;;;;;;;14.56;100.00;100635.88;5032190;28;20053;-77
2023/07/03 02:41:10;;;;;;;11.23;3.53;;;;;;;14.51;100.00;100629.75;4992717;28;20299;-77
2023/07/03 02:43:37;;;;;;;9.50;3.05;;;;;;;14.46;100.00;100629.84;5012298;28;20045;-77
2023/07/03 02:46:06;;;;;;;8.88;2.75;;;;;;;14.40;100.00;100629.94;5021458;28;20045;-77
2023/07/03 02:48:34;;;;;;;8.80;3.40;;;;;;;14.33;100.00;100639.78;5037541;28;20503;-77
2023/07/03 02:51:03;;;;;;;10.60;3.22;;;;;;;14.28;100.00;100631.00;5026296;28;20056;-77
2023/07/03 02:53:33;;;;;;;13.55;2.97;;;;;;;14.24;100.00;100630.19;5038317;28;20581;-77
2023/07/03 02:56:08;;;;;;;7.13;2.47;;;;;;;14.20;100.00;100627.63;5002094;28;20053;-77
2023/07/03 02:58:38;;;;;;;10.38;2.92;;;;;;;14.17;100.00;100625.00;5011252;28;20504;-78
2023/07/03 03:01:09;;;;;;;11.80;3.70;;;;;;;14.14;100.00;100619.72;5028491;28;20041;-77
2023/07/03 03:03:36;;;;;;;17.13;3.08;;;;;;;14.10;100.00;100624.22;5014588;28;20052;-77
2023/07/03 03:06:04;;;;;;;11.00;3.03;;;;;;;14.05;100.00;100615.47;4985922;28;20519;-77
2023/07/03 03:08:32;;;;;;;10.73;3.08;;;;;;;13.99;100.00;100613.78;5017813;28;20052;-77
2023/07/03 03:11:00;;;;;;;12.45;2.80;;;;;;;13.99;100.00;100618.22;5029992;28;20080;-77
2023/07/03 03:13:28;;;;;;;9.32;2.90;;;;;;;13.94;100.00;100610.31;5004766;28;20052;-78
2023/07/03 03:15:58;;;;;;;7.78;3.08;;;;;;;13.92;100.00;100616.53;5012719;28;20507;-78
2023/07/03 03:18:25;;;;;;;11.13;3.10;;;;;;;13.88;100.00;100610.41;5012188;28;20044;-77
2023/07/03 03:20:53;;;;;;;8.43;2.70;;;;;;;13.84;100.00;100611.34;4998139;28;20152;-77
2023/07/03 03:23:20;;;;;;;7.35;2.17;;;;;;;13.83;100.00;100609.59;5024146;28;20041;-78
2023/07/03 03:25:48;;;;;;;11.05;2.83;;;;;;;13.82;100.00;100615.81;5008675;28;20064;-77
2023/07/03 03:28:16;;;;;;;8.02;2.35;;;;;;;13.81;100.00;100614.03;4969791;28;23913;-77
2023/07/03 03:30:45;;;;;;;12.75;2.55;;;;;;;13.82;100.00;100613.16;5024322;28;20408;-77
2023/07/03 03:33:14;;;;;;;10.55;2.45;;;;;;;13.84;100.00;100616.66;5023885;28;20057;-76
2023/07/03 03:35:41;;;;;;;10.32;2.33;;;;;;;13.86;100.00;100608.69;5019314;28;20056;-77
2023/07/03 03:38:09;;;;;;;9.40;2.78;;;;;;;13.87;100.00;100606.00;5005923;28;20056;-77
2023/07/03 03:40:37;;;;;;;9.65;2.53;;;;;;;13.90;100.00;100608.63;5023898;28;20427;-77
2023/07/03 03:43:06;;;;;;;6.45;1.70;;;;;;;13.90;100.00;100613.91;5001566;28;20049;-77
2023/07/03 03:45:34;;;;;;;9.93;2.28;;;;;;;13.91;100.00;100614.78;5011587;28;20060;-78
2023/07/03 03:48:04;;;;;;;12.73;3.10;;;;;;;13.92;100.00;100616.53;4982668;28;20060;-77
2023/07/03 03:50:32;;;;;;;9.98;2.47;;;;;;;13.93;100.00;100619.19;5025510;28;20603;-77
2023/07/03 03:52:59;;;;;;;10.40;2.22;;;;;;;13.95;100.00;100614.72;5032672;28;20067;-78
2023/07/03 03:55:27;;;;;;;7.25;2.38;;;;;;;13.96;100.00;100619.13;4999366;28;20052;-78
2023/07/03 03:57:55;;;;;;;9.70;2.50;;;;;;;13.97;100.00;100623.53;5022651;28;20049;-77
2023/07/03 04:00:22;;;;;;;11.68;2.40;;;;;;;13.98;100.00;100619.97;4985546;28;20060;-77
2023/07/03 04:02:49;;;;;;;9.35;2.72;;;;;;;14.01;100.00;100619.06;5024413;28;20053;-78
2023/07/03 04:05:17;;;;;;;8.52;2.00;;;;;;;14.02;100.00;100616.38;5030838;28;20873;-78
2023/07/03 04:07:45;;;;;;;8.05;2.17;;;;;;;14.03;100.00;100622.56;5002819;28;20585;-78
2023/07/03 04:10:12;;;;;;;11.82;3.00;;;;;;;14.04;100.00;100617.25;4998421;28;20045;-77
2023/07/03 04:12:39;;;;;;;9.52;3.53;;;;;;;14.24;100.00;100618.72;5019165;28;20063;-77
2023/07/03 04:15:08;;;;;;;9.45;2.22;;;;;;;14.44;100.00;100626.31;4988803;28;20654;-76
2023/07/03 04:17:35;;;;;;;8.00;2.28;;;;;;;14.98;100.00;100622.78;5028114;28;20052;-78
2023/07/03 04:20:13;;;;;;;9.80;2.17;;;;;;;15.63;100.00;100613.53;5014130;28;20056;-78
2023/07/03 04:22:41;;;;;;;8.43;2.60;;;;;;;16.24;100.00;100620.16;5033624;28;20048;-78
2023/07/03 04:25:10;;;;;;;7.10;2.35;;;;;;;16.23;100.00;100613.09;5031649;28;20610;-77
2023/07/03 04:27:37;;;;;;;7.43;2.30;;;;;;;16.05;100.00;100622.38;5046352;28;20048;-78
2023/07/03 04:30:06;;;;;;;9.40;2.53;;;;;;;15.80;100.00;100614.06;5004012;28;20407;-76
2023/07/03 04:32:34;;;;;;;9.95;2.40;;;;;;;15.57;100.00;100618.06;5033315;28;20055;-79
2023/07/03 04:35:06;;;;;;;10.63;2.50;;;;;;;15.37;100.00;100620.28;5043611;28;20045;-77
2023/07/03 04:37:34;;;;;;;12.45;2.55;;;;;;;15.76;100.00;100630.97;5041526;28;20049;-78
2023/07/03 04:40:03;;;;;;;7.60;2.33;;;;;;;16.35;100.00;100627.84;4990954;28;20045;-77
2023/07/03 04:42:32;;;;;;;9.10;2.30;;;;;;;16.98;100.00;100628.09;5016891;28;20037;-77
2023/07/03 04:45:01;;;;;;;8.57;2.20;;;;;;;17.40;100.00;100631.34;4969148;28;20061;-77
2023/07/03 04:47:29;;;;;;;10.85;2.70;;;;;;;17.42;100.00;100623.31;5034983;28;20049;-77
2023/07/03 04:49:58;;;;;;;12.02;2.90;;;;;;;17.22;100.00;100631.88;5026696;28;20075;-77
2023/07/03 04:52:27;;;;;;;10.50;2.75;;;;;;;17.17;100.00;100644.44;5034890;28;20539;-77
2023/07/03 04:54:55;;;;;;;4.43;1.75;;;;;;;17.03;100.00;100647.47;5006247;28;20408;-78
2023/07/03 04:57:22;;;;;;;9.98;2.53;;;;;;;17.02;100.00;100643.94;5007760;28;20059;-77
2023/07/03 04:59:50;;;;;;;7.32;2.08;;;;;;;16.84;100.00;100652.41;5032226;28;20068;-77
2023/07/03 05:02:18;;;;;;;7.30;2.60;;;;;;;17.15;100.00;100658.66;4984521;28;20428;-79
2023/07/03 05:04:45;;;;;;;10.98;2.55;;;;;;;17.81;100.00;100645.25;5018732;28;20038;-77
2023/07/03 05:07:13;;;;;;;9.05;2.42;;;;;;;18.11;100.00;100646.16;5025032;28;20636;-76
2023/07/03 05:09:41;;;;;;;6.70;1.73;;;;;;;18.55;100.00;100650.13;4996389;28;20037;-77
2023/07/03 05:12:09;;;;;;;9.65;2.88;;;;;;;19.00;100.00;100637.03;5032817;28;20045;-77
2023/07/03 05:14:36;;;;;;;9.50;1.98;;;;;;;19.48;100.00;100646.84;5039222;28;20045;-77
2023/07/03 05:17:03;;;;;;;9.55;2.33;;;;;;;20.03;100.00;100645.72;4994790;28;20049;-77
2023/07/03 05:19:32;;;;;;;7.60;2.17;;;;;;;20.31;100.00;100639.28;5000629;28;20053;-78
2023/07/03 05:21:59;;;;;;;8.10;2.17;;;;;;;20.68;100.00;100643.13;5022461;28;20049;-77
2023/07/03 05:24:27;;;;;;;8.40;2.03;;;;;;;21.04;99.66;100638.00;5045458;28;20071;-78
2023/07/03 05:26:58;;;;;;;;;;;;;;;21.34;81.69;100637.56;5017837;28;20048;-78
2023/07/03 05:29:25;;;;;;;10.48;2.85;;;;;;;21.65;97.75;100633.53;5044927;28;19920;-78
2023/07/03 05:31:52;;;;;;;7.75;2.65;;;;;;;21.92;94.86;100632.22;5010462;28;20037;-76
2023/07/03 05:34:20;;;;;;;9.27;2.13;;;;;;;22.11;92.04;100639.41;5030473;28;20072;-77
2023/07/03 05:36:47;;;;;;;6.93;2.22;;;;;;;22.19;90.48;100642.56;5027868;28;20507;-78
2023/07/03 05:39:15;;;;;;;8.15;2.30;;;;;;;22.32;89.29;100650.94;5025382;28;20053;-77
2023/07/03 05:41:42;;;;;;;4.78;1.90;;;;;;;22.50;88.45;100652.72;4992052;28;20056;-77
2023/07/03 05:44:10;;;;;;;5.53;2.00;;;;;;;22.52;87.54;100648.16;5026590;28;20049;-77
2023/07/03 05:46:37;;;;;;;6.95;2.00;;;;;;;22.62;85.41;100653.91;5038751;28;20067;-78
2023/07/03 05:49:04;;;;;;;10.23;2.10;;;;;;;22.66;84.21;100642.06;4951751;28;20053;-77
2023/07/03 05:51:32;;;;;;;9.63;2.50;;;;;;;22.59;82.50;100651.41;5010533;28;20045;-77
2023/07/03 05:53:59;;;;;;;5.53;1.80;;;;;;;22.76;82.44;100645.19;5004314;28;20059;-77
2023/07/03 05:56:28;;;;;;;8.82;2.65;;;;;;;22.90;81.37;100656.09;5020665;28;20045;-78
2023/07/03 05:58:55;;;;;;;10.25;2.20;;;;;;;22.94;79.45;100657.66;5030956;28;20049;-76
2023/07/03 06:01:23;;;;;;;8.57;2.22;;;;;;;22.70;78.16;100662.47;5017387;28;20045;-77
2023/07/03 06:03:50;;;;;;;6.60;2.05;;;;;;;22.02;77.74;100661.31;4980011;28;20051;-78
2023/07/03 06:06:18;;;;;;;3.97;1.55;;;;;;;21.40;78.72;100661.44;5037668;28;20039;-77
2023/07/03 06:08:45;;;;;;;8.35;1.85;;;;;;;20.98;79.95;100665.03;5035146;28;20049;-78
2023/07/03 06:11:12;;;;;;;9.00;2.20;;;;;;;20.94;81.15;100666.13;5039808;28;20053;-78
2023/07/03 06:13:39;;;;;;;9.82;2.05;;;;;;;20.68;80.73;100676.13;5013312;28;20052;-77
2023/07/03 06:16:07;;;;;;;6.80;2.03;;;;;;;20.27;82.14;100669.78;5028361;28;20052;-76
2023/07/03 06:18:35;;;;;;;8.65;1.90;;;;;;;19.84;84.19;100675.84;4986352;28;20053;-79
2023/07/03 06:21:03;;;;;;;11.95;2.08;;;;;;;19.39;85.70;100684.59;5044841;28;20056;-76
2023/07/03 06:23:30;;;;;;;8.07;1.88;;;;;;;19.12;88.34;100678.44;5024401;28;20053;-77
2023/07/03 06:25:58;;;;;;;8.65;2.22;;;;;;;19.04;90.42;100681.38;5042442;28;20496;-77
2023/07/03 06:28:25;;;;;;;13.35;2.45;;;;;;;19.19;92.46;100689.81;5026775;28;20064;-77
2023/07/03 06:30:52;;;;;;;12.13;2.40;;;;;;;19.34;91.44;100688.34;5026206;28;20060;-77
2023/07/03 06:33:21;;;;;;;7.47;1.80;;;;;;;19.57;91.14;100684.88;5026770;28;20052;-77
2023/07/03 06:35:50;;;;;;;7.82;2.20;;;;;;;19.92;90.67;100672.00;4962887;28;20059;-77
2023/07/03 06:38:18;;;;;;;6.77;1.70;;;;;;;20.08;88.09;100669.63;5013057;28;20419;-77
2023/07/03 06:40:58;;;;;;;8.82;1.58;;;;;;;20.14;86.60;100675.59;5040835;28;20052;-77
2023/07/03 06:43:25;;;;;;;7.18;2.22;;;;;;;20.25;85.05;100669.81;5026337;28;20041;-77
2023/07/03 06:45:53;;;;;;;6.90;1.65;;;;;;;20.27;85.09;100675.13;4975358;28;20045;-78
2023/07/03 06:48:24;;;;;;;12.07;1.85;;;;;;;20.23;84.78;100671.69;5036183;28;20049;-78
2023/07/03 06:51:04;;;;;;;7.57;2.10;;;;;;;20.19;85.84;100662.91;4979587;28;20048;-77
2023/07/03 06:53:32;;;;;;;6.50;1.60;;;;;;;20.10;86.01;100667.75;5035741;28;20044;-77
2023/07/03 06:56:01;;;;;;;7.50;1.80;;;;;;;19.96;86.28;100673.63;5036305;28;20048;-77
2023/07/03 06:58:29;;;;;;;9.18;1.75;;;;;;;19.86;86.32;100671.28;5020896;28;20052;-78
2023/07/03 07:00:57;;;;;;;6.45;1.42;;;;;;;19.71;85.26;100671.84;5033910;28;20049;-78
2023/07/03 07:03:25;;;;;;;4.57;1.45;;;;;;;19.55;86.59;100671.56;5009874;28;20068;-78
2023/07/03 07:05:53;;;;;;;4.68;1.40;;;;;;;19.34;87.43;100686.56;4976377;28;20044;-77
2023/07/03 07:08:21;;;;;;;8.18;1.35;;;;;;;19.01;89.39;100684.16;5030762;28;20503;-78
2023/07/03 07:10:49;;;;;;;8.00;1.70;;;;;;;18.74;93.07;100720.63;5011197;28;20060;-77
2023/07/03 07:13:16;;;;;;;4.78;1.65;;;;;;;18.45;98.02;100717.09;5042642;28;20510;-76
2023/07/03 07:15:43;;;;;;;8.98;1.90;;;;;;;17.99;100.00;100712.31;5008688;28;20059;-77
2023/07/03 07:18:10;;;;;;;8.70;2.10;;;;;;;17.42;100.00;100712.09;5037964;28;20053;-77
2023/07/03 07:20:41;;;;;;;13.88;1.85;;;;;;;17.04;100.00;100711.31;4989196;28;20057;-78
2023/07/03 07:23:08;;;;;;;6.20;1.88;;;;;;;16.61;100.00;100720.31;5011719;28;20514;-79
2023/07/03 07:25:39;;;;;;;8.18;1.63;;;;;;;16.37;100.00;100721.78;5039882;28;20040;-79
2023/07/03 07:28:07;;;;;;;10.43;2.13;;;;;;;16.24;100.00;100707.91;5040082;28;20063;-79
2023/07/03 07:30:37;;;;;;;6.22;2.05;;;;;;;16.16;100.00;100713.38;5005883;28;20033;-79
2023/07/03 07:33:04;;;;;;;9.10;2.78;;;;;;;16.20;100.00;100711.53;5031335;28;20045;-80
2023/07/03 07:35:35;;;;;;;6.82;2.35;;;;;;;16.32;100.00;100703.28;5029746;28;20044;-79
2023/07/03 07:38:03;;;;;;;5.10;1.70;;;;;;;16.47;100.00;100709.16;5006978;28;20056;-79
2023/07/03 07:40:30;;;;;;;11.82;1.95;;;;;;;16.67;100.00;100709.56;5014397;28;20059;-78
2023/07/03 07:42:58;;;;;;;7.13;2.53;;;;;;;16.85;100.00;100718.91;5032873;28;20554;-78
2023/07/03 07:45:25;;;;;;;10.18;2.03;;;;;;;17.10;100.00;100710.28;5026885;28;20045;-80
2023/07/03 07:47:52;;;;;;;9.68;2.25;;;;;;;17.15;100.00;100714.56;4989092;28;20085;-80
2023/07/03 07:50:20;;;;;;;8.80;2.08;;;;;;;17.35;100.00;100718.50;5036277;28;20060;-78
2023/07/03 07:52:48;;;;;;;5.03;1.85;;;;;;;17.52;100.00;100710.94;4984085;28;20068;-80
2023/07/03 07:55:17;;;;;;;12.95;2.22;;;;;;;17.48;100.00;100729.69;5025691;28;20045;-81
2023/07/03 07:57:44;;;;;;;5.75;1.90;;;;;;;17.37;100.00;100721.13;5022813;28;20064;-81
2023/07/03 08:00:12;;;;;;;8.63;1.80;;;;;;;17.24;100.00;100715.25;5030472;28;20040;-77
2023/07/03 08:02:40;;;;;;;4.18;1.80;;;;;;;17.25;100.00;100709.00;5026954;28;20060;-78
2023/07/03 08:05:08;;;;;;;8.43;2.25;;;;;;;17.31;100.00;100715.03;4990947;28;20152;-80
2023/07/03 08:07:35;;;;;;;4.55;1.90;;;;;;;17.42;100.00;100717.41;5025598;28;20535;-80
2023/07/03 08:10:04;;;;;;;6.72;1.58;;;;;;;17.52;100.00;100715.38;4972687;28;20044;-79
2023/07/03 08:12:33;;;;;;;9.00;1.65;;;;;;;17.57;100.00;100712.59;5012143;28;20456;-80
2023/07/03 08:15:03;;;;;;;7.20;1.40;;;;;;;17.65;100.00;100711.44;5012589;28;20060;-81
2023/07/03 08:17:34;;;;;;;6.10;1.67;;;;;;;17.65;100.00;100716.78;5025113;28;20041;-82
2023/07/03 08:20:02;;;;;;;5.00;1.25;;;;;;;17.72;100.00;100714.81;5021521;28;20069;-80
2023/07/03 08:22:29;;;;;;;7.10;2.03;;;;;;;17.76;100.00;100715.59;5033128;28;20045;-81
2023/07/03 08:24:57;;;;;;;6.60;1.80;;;;;;;17.73;100.00;100719.22;4986672;28;20053;-81
2023/07/03 08:27:24;;;;;;;5.00;1.10;;;;;;;17.67;100.00;100722.06;5012141;28;20056;-81
2023/07/03 08:29:56;;;;;;;4.28;1.35;;;;;;;17.62;100.00;100729.34;5042738;28;20042;-80
2023/07/03 08:32:23;;;;;;;4.57;1.70;;;;;;;17.60;100.00;100732.03;5043638;28;20057;-80
2023/07/03 08:34:51;;;;;;;3.83;1.42;;;;;;;17.67;100.00;100730.06;4989094;28;20049;-79
2023/07/03 08:37:22;;;;;;;9.40;1.80;;;;;;;17.64;100.00;100732.81;5043551;28;20056;-83
2023/07/03 08:39:49;;;;;;;5.93;1.80;;;;;;;17.67;100.00;100724.72;4978793;28;20052;-79
2023/07/03 08:42:32;;;;;;;4.22;1.40;;;;;;;17.83;100.00;100723.38;5034321;28;20060;-80
2023/07/03 08:45:01;;;;;;;6.35;1.60;;;;;;;17.96;100.00;100725.72;5039288;28;20060;-79
2023/07/03 08:47:31;;;;;;;5.28;1.38;;;;;;;17.97;100.00;100716.81;5043591;28;20422;-82
2023/07/03 08:50:02;;;;;;;5.55;1.10;;;;;;;17.92;100.00;100739.16;5016446;28;20049;-81
2023/07/03 08:52:56;;;;;;;5.47;1.60;;;;;;;17.87;100.00;100733.06;5036455;28;20045;-80
2023/07/03 08:55:30;;;;;;;4.22;1.33;;;;;;;17.81;100.00;100738.56;4992634;28;20056;-80
2023/07/03 08:57:57;;;;;;;6.07;1.15;;;;;;;17.83;100.00;100738.50;5017372;28;20052;-80
2023/07/03 09:00:29;;;;;;;3.75;1.27;;;;;;;17.93;100.00;100745.34;5046821;28;20048;-80
2023/07/03 09:03:10;;;;;;;3.80;0.90;;;;;;;18.07;100.00;100745.84;5050829;28;20064;-80
2023/07/03 09:05:47;;;;;;;5.25;1.42;;;;;;;18.21;100.00;100756.06;5014076;28;20057;-80
2023/07/03 09:08:25;;;;;;;3.10;0.98;;;;;;;18.27;100.00;100757.69;5013688;28;20052;-79
2023/07/03 09:10:53;;;;;;;3.95;1.20;;;;;;;18.26;99.62;100746.16;5037036;28;20128;-78
2023/07/03 09:13:39;;;;;;;4.47;1.27;;;;;;;18.19;97.24;100743.72;5022507;28;20052;-81
2023/07/03 09:16:33;;;;;;;1.73;1.05;;;;;;;18.16;95.46;100750.00;5046137;28;20495;-78
2023/07/03 09:19:05;;;;;;;4.22;1.05;;;;;;;18.17;97.09;100754.44;5049321;28;20608;-81
2023/07/03 09:21:35;;;;;;;2.03;0.90;;;;;;;18.28;97.34;100743.44;5016402;28;20064;-81
2023/07/03 09:24:23;;;;;;;3.53;1.25;;;;;;;18.38;94.16;100744.03;5034203;28;20051;-80
2023/07/03 09:27:19;;;;;;;4.63;1.25;;;;;;;18.41;91.72;100750.16;5045818;28;20056;-81
2023/07/03 09:29:49;;;;;;;2.90;1.15;;;;;;;18.28;88.65;100754.13;5025360;28;20053;-80
2023/07/03 09:32:29;;;;;;;3.25;1.20;;;;;;;18.11;87.49;100767.94;5032212;28;20052;-80
2023/07/03 09:35:19;;;;;;;5.78;1.25;;;;;;;18.00;87.72;100770.06;5039429;28;20060;-78
2023/07/03 09:38:17;;;;;;;6.15;1.30;;;;;;;17.98;93.80;100772.75;5018222;28;20045;-80
2023/07/03 09:40:49;;;;;;;4.40;1.10;;;;;;;17.95;92.83;100787.97;5029449;28;20057;-80
2023/07/03 09:43:25;;;;;;;4.95;1.35;;;;;;;17.89;92.30;100783.69;4994027;28;20061;-77
2023/07/03 09:46:09;;;;;;;2.45;0.80;;;;;;;17.98;96.71;100779.88;5011212;28;20076;-77
2023/07/03 09:48:37;;;;;;;7.15;1.30;;;;;;;18.24;99.18;100779.09;5038587;28;20534;-79
2023/07/03 09:51:38;;;;;;;4.85;1.50;;;;;;;18.46;100.00;100774.88;5030806;28;20057;-80
2023/07/03 09:54:17;;;;;;;3.45;1.27;;;;;;;18.58;99.19;100765.63;5007590;28;20053;-79
2023/07/03 09:56:46;;;;;;;5.90;1.05;;;;;;;18.61;98.09;100776.19;5023160;28;20037;-78
2023/07/03 09:59:16;;;;;;;1.77;0.93;;;;;;;18.63;95.60;100779.69;4974118;28;20388;-80
2023/07/03 10:01:44;;;;;;;2.55;1.08;;;;;;;18.63;94.77;100781.50;5034870;28;20045;-79
2023/07/03 10:04:16;;;;;;;2.33;1.20;;;;;;;18.60;91.22;100774.47;5003518;28;20057;-79
2023/07/03 10:07:00;;;;;;;3.72;1.02;;;;;;;18.48;89.14;100780.16;5001671;28;20050;-81
2023/07/03 10:09:38;;;;;;;3.20;1.27;;;;;;;18.44;91.21;100790.06;5028753;28;20048;-78
2023/07/03 10:12:18;;;;;;;4.10;1.20;;;;;;;18.38;92.39;100786.72;5035369;28;20045;-79
2023/07/03 10:14:54;;;;;;;3.85;0.95;;;;;;;18.33;92.25;100794.84;4989675;28;20049;-80
2023/07/03 10:17:33;;;;;;;4.40;1.13;;;;;;;18.20;93.30;100793.44;5030448;28;20053;-80
2023/07/03 10:20:10;;;;;;;3.20;1.20;;;;;;;18.23;93.45;100794.25;5029561;28;20407;-79
2023/07/03 10:22:41;;;;;;;5.43;1.42;;;;;;;18.18;93.26;100789.97;5050682;28;20053;-80
2023/07/03 10:25:17;;;;;;;6.70;1.85;;;;;;;18.04;91.73;100801.03;5031302;28;20053;-79
2023/07/03 10:27:47;;;;;;;7.82;1.05;;;;;;;17.98;93.23;100799.41;5049836;28;20049;-78
2023/07/03 10:30:18;;;;;;;4.03;1.48;;;;;;;17.92;93.67;100804.94;5001450;28;20640;-79
2023/07/03 10:32:49;;;;;;;1.90;0.70;;;;;;;17.79;93.02;100814.13;5027621;28;20049;-77
2023/07/03 10:35:30;;;;;;;2.88;1.02;;;;;;;17.67;92.96;100810.00;5021119;28;20050;-78
2023/07/03 10:38:26;;;;;;;3.50;1.17;;;;;;;17.64;96.42;100812.75;5030234;28;20046;-78
2023/07/03 10:41:03;;;;;;;3.55;0.95;;;;;;;17.64;95.54;100826.09;5034495;28;20072;-78
2023/07/03 10:43:42;;;;;;;4.20;1.90;;;;;;;17.60;95.95;100827.06;5036121;28;20068;-79
2023/07/03 10:46:26;;;;;;;2.20;0.95;;;;;;;17.51;98.04;100825.53;4995615;28;20680;-80
2023/07/03 10:48:58;;;;;;;2.65;1.25;;;;;;;17.40;99.12;100830.25;5039879;28;20056;-77
2023/07/03 10:51:43;;;;;;;1.15;0.70;;;;;;;17.31;100.00;100818.03;5011167;28;20041;-78
2023/07/03 10:54:22;;;;;;;5.45;1.00;;;;;;;17.21;99.85;100811.19;5032949;28;20056;-78
2023/07/03 10:56:52;;;;;;;2.53;0.95;;;;;;;17.18;99.66;100805.94;5013568;28;20049;-79
2023/07/03 10:59:24;;;;;;;3.10;0.98;;;;;;;17.28;99.98;100810.13;5047359;28;20061;-78
2023/07/03 11:02:02;;;;;;;2.25;0.73;;;;;;;17.47;100.00;100807.88;5019042;28;20057;-79
2023/07/03 11:04:44;;;;;;;4.03;1.25;;;;;;;17.46;96.88;100817.63;5022970;28;20474;-79
2023/07/03 11:07:15;;;;;;;4.70;1.08;;;;;;;17.45;97.03;100802.59;5037468;28;20100;-78
2023/07/03 11:09:51;;;;;;;6.78;1.45;;;;;;;17.52;96.99;100820.16;5049500;28;20057;-78
2023/07/03 11:12:25;;;;;;;4.30;1.13;;;;;;;17.59;97.16;100830.66;5011251;28;20049;-78
2023/07/03 11:15:30;;;;;;;5.80;1.17;;;;;;;17.53;94.87;100834.34;5030909;28;20515;-78
2023/07/03 11:18:35;;;;;;;4.40;0.98;;;;;;;17.51;96.96;100833.53;5043372;28;20053;-78
2023/07/03 11:21:36;;;;;;;5.93;1.10;;;;;;;17.42;95.87;100831.09;5041426;28;20055;-79
2023/07/03 11:24:33;;;;;;;4.40;1.20;;;;;;;17.39;97.61;100833.81;5036287;28;20057;-78
2023/07/03 11:27:21;;;;;;;4.78;1.00;;;;;;;17.49;99.33;100822.03;5033404;28;20060;-79
2023/07/03 11:29:53;;;;;;;9.00;1.30;;;;;;;17.89;100.00;100821.84;5044602;28;20460;-79
2023/07/03 11:32:23;;;;;;;5.53;1.70;;;;;;;18.27;98.40;100819.91;5017135;28;20056;-79
2023/07/03 11:34:51;;;;;;;4.15;1.05;;;;;;;18.62;97.04;100807.31;4986205;28;20057;-78
2023/07/03 11:37:43;;;;;;;3.72;1.20;;;;;;;19.01;93.16;100811.47;4999538;28;20745;-80